Time;durP1;ratioP1;P1;durP2;ratioP2;P2;SDS_P1;SDS_P2;PMS_P1;PMS_P2;Temp;Humidity;BMP_temperature;BMP_pressure;BME280_temperature;BME280_humidity;BME280_pressure;Samples;Min_cycle;Max_cycle;Signal;HPM_P1;HPM_P2
2022/09/10 00:01:31;;;;;;;2.40;0.73;;;16.50;99.90;;;;;;5029757;28;20437;-76
2022/09/10 00:03:57;;;;;;;4.87;0.70;;;16.60;99.90;;;;;;5029722;28;20540;-76
2022/09/10 00:06:26;;;;;;;1.20;0.60;;;16.60;99.90;;;;;;5011943;28;20508;-76
2022/09/10 00:08:55;;;;;;;2.70;0.90;;;16.40;99.90;;;;;;5030146;28;20461;-78
2022/09/10 00:11:21;;;;;;;2.50;0.77;;;16.30;99.90;;;;;;5028824;28;20560;-79
2022/09/10 00:13:46;;;;;;;2.13;0.80;;;16.30;99.90;;;;;;5030246;28;20549;-78
2022/09/10 00:16:14;;;;;;;1.93;0.67;;;16.40;99.90;;;;;;5028821;28;20441;-78
2022/09/10 00:18:44;;;;;;;2.60;0.80;;;16.40;99.90;;;;;;5028653;28;20207;-78
2022/09/10 00:21:13;;;;;;;3.90;0.87;;;16.50;99.90;;;;;;5029954;28;20532;-79
2022/09/10 00:23:39;;;;;;;1.57;0.60;;;16.40;99.90;;;;;;5029900;28;20474;-79
2022/09/10 00:26:34;;;;;;;1.77;0.67;;;16.50;99.90;;;;;;5029993;28;20453;-78
2022/09/10 00:29:00;;;;;;;2.07;0.70;;;16.40;99.90;;;;;;5029684;28;20850;-78
2022/09/10 00:31:27;;;;;;;5.50;1.13;;;16.30;99.90;;;;;;5029592;28;20815;-79
2022/09/10 00:33:53;;;;;;;1.67;0.50;;;16.30;99.90;;;;;;5028407;28;20524;-79
2022/09/10 00:36:22;;;;;;;2.33;0.73;;;16.10;99.90;;;;;;5028346;28;20892;-78
2022/09/10 00:38:49;;;;;;;0.90;0.60;;;16.00;99.90;;;;;;5029706;28;20428;-78
2022/09/10 00:41:16;;;;;;;4.33;1.10;;;16.00;99.90;;;;;;5027927;28;20471;-79
2022/09/10 00:44:04;;;;;;;1.70;0.60;;;15.90;99.90;;;;;;5028421;28;20467;-79
2022/09/10 00:46:35;;;;;;;1.90;0.73;;;15.80;99.90;;;;;;5029136;28;20421;-78
2022/09/10 00:49:19;;;;;;;2.60;0.60;;;15.80;99.90;;;;;;5029124;28;20914;-79
2022/09/10 00:51:52;;;;;;;2.80;0.70;;;15.80;99.90;;;;;;5012109;28;20484;-78
2022/09/10 00:54:22;;;;;;;1.23;0.50;;;15.60;99.90;;;;;;5027520;28;20528;-79
2022/09/10 00:56:50;;;;;;;1.80;0.60;;;15.50;99.90;;;;;;5011556;28;20456;-79
2022/09/10 00:59:19;;;;;;;5.80;0.87;;;15.40;99.90;;;;;;5027744;28;20433;-78
2022/09/10 01:01:46;;;;;;;1.73;0.60;;;15.40;99.90;;;;;;5028829;28;21300;-79
2022/09/10 01:04:12;;;;;;;2.00;0.80;;;15.40;99.90;;;;;;5028936;28;20432;-79
2022/09/10 01:06:40;;;;;;;1.97;0.60;;;15.40;99.90;;;;;;5011156;28;20499;-75
2022/09/10 01:09:08;;;;;;;2.17;0.63;;;15.50;99.90;;;;;;5028964;28;20181;-78
2022/09/10 01:11:48;;;;;;;2.93;0.90;;;15.50;99.90;;;;;;5030050;28;20458;-78
2022/09/10 01:14:34;;;;;;;0.90;0.60;;;15.50;99.90;;;;;;5027987;28;20452;-78
2022/09/10 01:17:02;;;;;;;2.83;0.67;;;15.50;99.90;;;;;;5029741;28;20430;-78
2022/09/10 01:20:06;;;;;;;1.40;0.80;;;15.40;99.90;;;;;;5028183;28;21022;-78
2022/09/10 01:23:00;;;;;;;3.17;1.00;;;15.40;99.90;;;;;;5031278;28;20468;-78
2022/09/10 01:25:39;;;;;;;1.00;0.60;;;15.40;99.90;;;;;;5033366;28;20420;-77
2022/09/10 01:28:11;;;;;;;3.83;0.80;;;15.30;99.90;;;;;;5030542;28;20817;-77
2022/09/10 01:30:49;;;;;;;1.43;0.50;;;15.30;99.90;;;;;;5028831;28;20424;-77
2022/09/10 01:33:25;;;;;;;2.17;0.60;;;15.40;99.90;;;;;;5030327;28;20419;-76
2022/09/10 01:35:59;;;;;;;5.27;0.67;;;15.30;99.90;;;;;;5034094;28;20997;-76
2022/09/10 01:38:26;;;;;;;2.60;1.17;;;15.30;99.90;;;;;;5033512;28;20433;-76
2022/09/10 01:40:55;;;;;;;2.27;0.57;;;15.20;99.90;;;;;;5033181;28;20426;-76
2022/09/10 01:43:21;;;;;;;6.50;0.90;;;15.20;99.90;;;;;;5033091;28;20540;-77
2022/09/10 01:45:50;;;;;;;1.47;0.50;;;15.20;99.90;;;;;;5015051;28;20437;-76
2022/09/10 01:48:48;;;;;;;1.93;0.80;;;15.10;99.90;;;;;;5032971;28;20928;-76
2022/09/10 01:51:33;;;;;;;5.33;0.70;;;15.20;99.90;;;;;;5030764;28;20557;-77
2022/09/10 01:54:12;;;;;;;4.53;0.90;;;15.20;99.90;;;;;;5032079;28;20468;-76
2022/09/10 01:56:50;;;;;;;1.97;0.70;;;15.30;99.90;;;;;;5031996;28;20427;-76
2022/09/10 01:59:15;;;;;;;5.17;0.90;;;15.30;99.90;;;;;;5031996;28;20427;-77
2022/09/10 02:01:49;;;;;;;2.63;0.70;;;15.30;99.90;;;;;;5032106;28;20870;-76
2022/09/10 02:04:18;;;;;;;2.30;0.83;;;15.30;99.90;;;;;;5014606;28;20613;-76
2022/09/10 02:06:46;;;;;;;1.60;0.80;;;15.40;99.90;;;;;;5030333;28;20456;-76
2022/09/10 02:09:14;;;;;;;3.17;0.67;;;15.40;99.90;;;;;;5030315;28;20416;-77
2022/09/10 02:11:50;;;;;;;3.00;0.70;;;15.30;99.90;;;;;;5031678;28;20454;-77
2022/09/10 02:14:16;;;;;;;1.13;0.70;;;15.50;99.90;;;;;;5031755;28;20446;-76
2022/09/10 02:16:49;;;;;;;2.33;0.70;;;15.50;99.90;;;;;;5031667;28;20416;-77
2022/09/10 02:19:15;;;;;;;0.90;0.60;;;15.50;99.90;;;;;;5029993;28;20424;-76
2022/09/10 02:21:41;;;;;;;1.53;0.90;;;15.60;99.90;;;;;;5030030;28;20455;-77
2022/09/10 02:24:10;;;;;;;1.83;0.70;;;15.80;99.90;;;;;;5030558;28;20464;-76
2022/09/10 02:26:38;;;;;;;4.53;0.77;;;15.80;99.90;;;;;;5030935;28;20186;-76
2022/09/10 02:29:05;;;;;;;5.30;0.60;;;15.90;99.90;;;;;;5033947;28;20513;-77
2022/09/10 02:31:31;;;;;;;1.93;0.90;;;15.80;99.90;;;;;;5033491;28;20445;-78
2022/09/10 02:33:57;;;;;;;4.00;0.80;;;15.90;99.90;;;;;;5030979;28;20949;-77
2022/09/10 02:36:24;;;;;;;6.93;0.70;;;15.90;99.90;;;;;;5031991;28;20428;-77
2022/09/10 02:38:52;;;;;;;2.60;0.63;;;16.00;99.90;;;;;;5031815;28;20178;-76
2022/09/10 02:41:18;;;;;;;1.93;0.50;;;16.00;99.90;;;;;;5031634;28;20437;-77
2022/09/10 02:43:44;;;;;;;2.80;0.87;;;16.10;99.90;;;;;;5029803;28;21115;-76
2022/09/10 02:46:09;;;;;;;1.77;0.50;;;16.00;99.90;;;;;;5028550;28;20180;-76
2022/09/10 02:48:35;;;;;;;2.60;0.70;;;16.00;99.90;;;;;;5013284;28;20479;-77
2022/09/10 02:51:01;;;;;;;2.97;0.80;;;16.00;99.90;;;;;;5029556;28;20671;-76
2022/09/10 02:53:27;;;;;;;2.40;0.83;;;15.90;99.90;;;;;;5030017;28;20269;-76
2022/09/10 02:55:53;;;;;;;3.93;1.20;;;15.90;99.90;;;;;;5031040;28;20564;-76
2022/09/10 02:58:19;;;;;;;1.53;0.73;;;15.90;99.90;;;;;;5029658;28;20189;-76
2022/09/10 03:00:45;;;;;;;2.73;1.13;;;15.90;99.90;;;;;;5030669;28;20427;-77
2022/09/10 03:03:11;;;;;;;4.30;0.97;;;15.80;99.90;;;;;;5031122;28;20469;-77
2022/09/10 03:05:37;;;;;;;1.20;0.83;;;15.80;99.90;;;;;;5030949;28;20419;-77
2022/09/10 03:08:04;;;;;;;2.20;0.87;;;15.70;99.90;;;;;;5030937;28;20185;-77
2022/09/10 03:10:30;;;;;;;1.20;0.70;;;15.70;99.90;;;;;;5030821;28;20496;-77
2022/09/10 03:12:57;;;;;;;5.27;0.90;;;15.70;99.90;;;;;;5029044;28;20472;-77
2022/09/10 03:15:22;;;;;;;3.20;0.77;;;15.70;99.90;;;;;;5031180;28;20800;-76
2022/09/10 03:17:48;;;;;;;0.90;0.50;;;15.60;99.90;;;;;;5030601;28;20524;-76
2022/09/10 03:20:14;;;;;;;1.10;0.60;;;15.60;99.90;;;;;;5030517;28;20285;-76
2022/09/10 03:22:39;;;;;;;1.57;0.50;;;15.60;99.90;;;;;;5012322;28;20222;-76
2022/09/10 03:25:06;;;;;;;3.00;0.60;;;15.60;99.90;;;;;;5028929;28;20222;-77
2022/09/10 03:27:33;;;;;;;3.70;0.70;;;15.60;99.90;;;;;;5030356;28;20297;-77
2022/09/10 03:29:59;;;;;;;3.80;1.20;;;15.50;99.90;;;;;;5028935;28;20571;-76
2022/09/10 03:32:25;;;;;;;1.37;0.83;;;15.60;99.90;;;;;;5028979;28;20446;-77
2022/09/10 03:34:51;;;;;;;3.03;0.60;;;15.50;99.90;;;;;;5030226;28;20185;-76
2022/09/10 03:37:17;;;;;;;3.53;0.63;;;15.40;99.90;;;;;;5028712;28;20518;-76
2022/09/10 03:39:43;;;;;;;1.80;1.10;;;15.30;99.90;;;;;;5028570;28;20446;-76
2022/09/10 03:42:09;;;;;;;3.07;0.70;;;15.20;99.90;;;;;;5028423;28;20217;-77
2022/09/10 03:44:35;;;;;;;2.70;0.80;;;15.10;99.90;;;;;;5030136;28;20189;-76
2022/09/10 03:47:01;;;;;;;4.50;1.00;;;15.10;99.90;;;;;;5028494;28;20423;-77
2022/09/10 03:49:27;;;;;;;3.37;0.87;;;15.10;99.90;;;;;;5029986;28;20178;-77
2022/09/10 03:51:53;;;;;;;2.70;1.00;;;15.00;99.90;;;;;;5030128;28;20622;-77
2022/09/10 03:54:19;;;;;;;1.13;0.90;;;15.00;99.90;;;;;;5030144;28;20984;-77
2022/09/10 03:56:45;;;;;;;2.73;0.80;;;15.00;99.90;;;;;;5029789;28;20445;-77
2022/09/10 03:59:14;;;;;;;1.20;0.70;;;15.00;99.90;;;;;;5028473;28;20490;-77
2022/09/10 04:01:40;;;;;;;2.60;0.80;;;15.00;99.90;;;;;;5029767;28;20246;-75
2022/09/10 04:04:07;;;;;;;3.03;0.93;;;15.00;99.90;;;;;;5029656;28;20557;-76
2022/09/10 04:06:34;;;;;;;8.83;1.20;;;14.90;99.90;;;;;;5029728;28;20431;-76
2022/09/10 04:09:00;;;;;;;7.47;0.80;;;14.70;99.90;;;;;;5029753;28;20432;-75
2022/09/10 04:11:26;;;;;;;3.40;1.07;;;14.60;99.90;;;;;;5029501;28;20440;-75
2022/09/10 04:13:53;;;;;;;3.23;0.80;;;14.50;99.90;;;;;;5029495;28;20497;-75
2022/09/10 04:16:20;;;;;;;2.77;0.80;;;14.30;99.90;;;;;;5029990;28;20423;-75
2022/09/10 04:18:45;;;;;;;4.10;0.80;;;14.20;99.90;;;;;;5029485;28;20455;-76
2022/09/10 04:21:11;;;;;;;2.57;0.80;;;14.30;99.90;;;;;;5029469;28;20479;-75
2022/09/10 04:23:40;;;;;;;5.10;0.80;;;14.30;99.90;;;;;;5029494;28;20215;-75
2022/09/10 04:26:13;;;;;;;1.43;0.70;;;14.30;99.90;;;;;;5029545;28;20223;-75
2022/09/10 04:28:39;;;;;;;2.60;0.63;;;14.30;99.90;;;;;;5029807;28;20431;-76
2022/09/10 04:31:05;;;;;;;1.27;0.73;;;14.30;99.90;;;;;;5030363;28;20526;-79
2022/09/10 04:33:33;;;;;;;2.53;0.70;;;14.40;99.90;;;;;;5030492;28;20829;-78
2022/09/10 04:35:59;;;;;;;7.83;1.00;;;14.30;99.90;;;;;;5028281;28;20432;-75
2022/09/10 04:38:26;;;;;;;4.37;1.10;;;14.30;99.90;;;;;;5029388;28;20550;-75
2022/09/10 04:40:52;;;;;;;1.50;0.80;;;14.20;99.90;;;;;;5029117;28;20421;-74
2022/09/10 04:43:17;;;;;;;1.97;0.80;;;14.00;99.90;;;;;;5027819;28;20624;-74
2022/09/10 04:45:43;;;;;;;2.50;0.70;;;14.00;99.90;;;;;;5029348;28;20184;-75
2022/09/10 04:48:09;;;;;;;1.87;0.80;;;14.10;99.90;;;;;;5028988;28;20190;-74
2022/09/10 04:50:34;;;;;;;2.77;0.60;;;14.20;99.90;;;;;;5029430;28;20583;-74
2022/09/10 04:53:00;;;;;;;5.03;0.63;;;14.40;99.90;;;;;;5031520;28;20205;-73
2022/09/10 04:55:26;;;;;;;5.50;0.50;;;14.30;99.90;;;;;;5029183;28;20271;-74
2022/09/10 04:57:53;;;;;;;1.87;0.87;;;14.40;99.90;;;;;;5028899;28;20184;-74
2022/09/10 05:00:18;;;;;;;1.83;0.70;;;14.40;99.90;;;;;;5028717;28;20896;-74
2022/09/10 05:02:45;;;;;;;3.43;0.80;;;14.50;99.90;;;;;;5027305;28;20507;-75
2022/09/10 05:05:10;;;;;;;2.93;0.80;;;14.60;99.90;;;;;;5029065;28;20178;-75
2022/09/10 05:07:36;;;;;;;2.20;0.70;;;14.60;99.90;;;;;;5028819;28;21196;-75
2022/09/10 05:10:02;;;;;;;3.13;0.70;;;14.50;99.90;;;;;;5028519;28;20181;-77
2022/09/10 05:12:27;;;;;;;2.73;0.73;;;14.50;99.90;;;;;;5029035;28;20824;-75
2022/09/10 05:14:53;;;;;;;1.30;0.50;;;14.50;99.90;;;;;;5027508;28;20191;-75
2022/09/10 05:17:19;;;;;;;2.83;0.90;;;14.50;99.90;;;;;;5028732;28;20179;-75
2022/09/10 05:19:45;;;;;;;4.77;0.70;;;14.40;99.90;;;;;;5027369;28;20419;-76
2022/09/10 05:22:10;;;;;;;1.33;0.70;;;14.30;99.90;;;;;;5027124;28;20211;-76
2022/09/10 05:24:36;;;;;;;4.17;0.80;;;14.30;99.90;;;;;;5028577;28;20332;-75
2022/09/10 05:27:02;;;;;;;3.27;0.60;;;14.30;99.90;;;;;;5028637;28;20177;-75
2022/09/10 05:29:27;;;;;;;2.47;0.80;;;14.20;99.90;;;;;;5028510;28;20180;-75
2022/09/10 05:31:53;;;;;;;1.50;1.00;;;14.20;99.90;;;;;;5028225;28;20201;-75
2022/09/10 05:34:19;;;;;;;3.80;0.83;;;14.30;99.90;;;;;;5028305;28;20204;-76
2022/09/10 05:36:45;;;;;;;1.20;0.60;;;14.30;99.90;;;;;;5028276;28;20189;-75
2022/09/10 05:39:10;;;;;;;3.33;0.77;;;14.40;99.90;;;;;;5026793;28;20423;-76
2022/09/10 05:41:36;;;;;;;3.70;1.00;;;14.30;99.90;;;;;;5028344;28;20216;-75
2022/09/10 05:44:02;;;;;;;1.63;0.63;;;14.30;99.90;;;;;;5026771;28;20315;-76
2022/09/10 05:46:29;;;;;;;1.37;0.70;;;14.30;99.90;;;;;;5028045;28;20427;-76
2022/09/10 05:48:55;;;;;;;2.00;0.70;;;14.40;99.90;;;;;;5026771;28;20426;-76
2022/09/10 05:51:21;;;;;;;2.60;0.60;;;14.50;99.90;;;;;;5026568;28;20439;-76
2022/09/10 05:53:46;;;;;;;2.20;0.60;;;14.50;99.90;;;;;;5026724;28;20453;-76
2022/09/10 05:56:12;;;;;;;2.20;0.50;;;14.40;99.90;;;;;;5028171;28;20280;-76
2022/09/10 05:58:37;;;;;;;2.40;0.80;;;14.40;99.90;;;;;;5026825;28;20553;-76
2022/09/10 06:01:03;;;;;;;2.80;0.70;;;14.50;99.90;;;;;;5026653;28;20221;-76
2022/09/10 06:03:29;;;;;;;2.17;0.70;;;14.60;99.90;;;;;;5028061;28;20209;-76
2022/09/10 06:05:54;;;;;;;3.83;0.70;;;14.80;99.90;;;;;;5026512;28;20188;-76
2022/09/10 06:08:21;;;;;;;2.33;0.80;;;14.70;99.90;;;;;;5028323;28;20185;-76
2022/09/10 06:11:06;;;;;;;1.10;0.80;;;14.60;99.90;;;;;;5027830;28;20180;-76
2022/09/10 06:13:37;;;;;;;1.73;0.73;;;14.60;99.90;;;;;;5026384;28;20450;-76
2022/09/10 06:16:03;;;;;;;2.60;0.60;;;14.60;99.90;;;;;;5026689;28;20489;-76
2022/09/10 06:18:30;;;;;;;2.40;0.70;;;14.70;99.90;;;;;;5028036;28;20509;-76
2022/09/10 06:21:05;;;;;;;1.20;0.70;;;14.70;99.90;;;;;;5030133;28;20435;-76
2022/09/10 06:23:31;;;;;;;1.20;0.70;;;14.70;99.90;;;;;;5031457;28;20470;-76
2022/09/10 06:26:05;;;;;;;1.70;0.60;;;14.70;99.90;;;;;;5013847;28;20951;-76
2022/09/10 06:28:32;;;;;;;2.63;0.73;;;14.80;99.90;;;;;;5031712;28;20768;-76
2022/09/10 06:30:58;;;;;;;1.63;0.60;;;14.80;99.90;;;;;;5031399;28;20415;-75
2022/09/10 06:33:24;;;;;;;0.80;0.60;;;14.90;99.90;;;;;;5029793;28;20431;-76
2022/09/10 06:35:57;;;;;;;4.50;0.70;;;15.00;99.90;;;;;;5031523;28;20939;-76
2022/09/10 06:38:24;;;;;;;2.57;0.77;;;15.00;99.90;;;;;;5029829;28;20185;-76
2022/09/10 06:40:54;;;;;;;3.47;0.80;;;15.10;99.90;;;;;;5029739;28;20431;-76
2022/09/10 06:43:24;;;;;;;1.20;0.67;;;15.20;99.90;;;;;;5031286;28;20489;-76
2022/09/10 06:45:54;;;;;;;1.70;0.70;;;15.10;99.90;;;;;;5033233;28;20494;-76
2022/09/10 06:48:21;;;;;;;2.33;0.80;;;15.10;99.90;;;;;;5031577;28;20409;-76
2022/09/10 06:50:55;;;;;;;2.97;0.63;;;15.10;99.90;;;;;;5031511;28;20417;-76
2022/09/10 06:53:21;;;;;;;1.10;0.70;;;15.20;99.90;;;;;;5031467;28;20525;-75
2022/09/10 06:55:49;;;;;;;1.83;0.60;;;15.20;99.90;;;;;;5031236;28;20430;-76
2022/09/10 06:58:16;;;;;;;1.17;0.60;;;15.20;99.90;;;;;;5029571;28;20429;-76
2022/09/10 07:00:42;;;;;;;1.50;0.50;;;15.10;99.90;;;;;;5031058;28;20974;-76
2022/09/10 07:03:08;;;;;;;3.27;0.70;;;15.20;99.90;;;;;;5031175;28;20571;-76
2022/09/10 07:05:34;;;;;;;1.13;0.57;;;15.20;99.90;;;;;;5029423;28;20812;-76
2022/09/10 07:08:00;;;;;;;3.13;0.50;;;15.30;99.90;;;;;;5030949;28;20464;-76
2022/09/10 07:10:30;;;;;;;3.10;0.67;;;15.40;99.90;;;;;;5029525;28;20194;-76
2022/09/10 07:12:55;;;;;;;3.53;1.07;;;15.40;99.90;;;;;;5030833;28;20517;-76
2022/09/10 07:15:21;;;;;;;1.00;0.60;;;15.50;99.90;;;;;;5029430;28;20441;-76
2022/09/10 07:17:46;;;;;;;3.43;0.70;;;15.40;99.90;;;;;;5030834;28;20193;-75
2022/09/10 07:20:13;;;;;;;1.00;0.50;;;15.40;99.90;;;;;;5029237;28;20244;-76
2022/09/10 07:22:42;;;;;;;1.30;0.60;;;15.40;99.90;;;;;;5030592;28;20203;-76
2022/09/10 07:25:08;;;;;;;2.27;1.00;;;15.50;99.90;;;;;;5030821;28;20511;-76
2022/09/10 07:27:34;;;;;;;1.63;0.70;;;15.60;99.90;;;;;;5029287;28;20780;-76
2022/09/10 07:29:59;;;;;;;2.00;0.70;;;15.50;99.90;;;;;;5029274;28;21014;-76
2022/09/10 07:32:25;;;;;;;1.30;0.60;;;15.50;99.90;;;;;;5028578;28;20271;-76
2022/09/10 07:34:51;;;;;;;1.57;0.70;;;15.60;99.90;;;;;;5029519;28;20177;-76
2022/09/10 07:37:16;;;;;;;3.13;0.70;;;15.60;99.90;;;;;;5029365;28;20182;-76
2022/09/10 07:39:42;;;;;;;0.80;0.43;;;15.70;99.90;;;;;;5028000;28;20456;-76
2022/09/10 07:42:10;;;;;;;2.70;0.67;;;15.60;99.90;;;;;;5028947;28;20299;-76
2022/09/10 07:44:36;;;;;;;1.30;0.60;;;15.70;99.90;;;;;;5029201;28;20269;-76
2022/09/10 07:47:02;;;;;;;2.53;0.57;;;15.80;99.90;;;;;;5029348;28;20513;-76
2022/09/10 07:49:28;;;;;;;1.57;0.50;;;15.90;99.90;;;;;;5029069;28;20269;-75
2022/09/10 07:51:53;;;;;;;2.00;0.57;;;15.90;99.90;;;;;;5029015;28;20553;-75
2022/09/10 07:54:19;;;;;;;0.87;0.50;;;15.80;99.90;;;;;;5027640;28;20876;-75
2022/09/10 07:56:45;;;;;;;1.10;0.50;;;16.00;99.90;;;;;;5011039;28;20191;-76
2022/09/10 07:59:12;;;;;;;1.20;0.73;;;15.90;99.90;;;;;;5028764;28;20492;-76
2022/09/10 08:01:37;;;;;;;1.03;0.50;;;15.90;99.90;;;;;;5027610;28;20758;-77
2022/09/10 08:04:03;;;;;;;2.50;0.80;;;16.00;99.90;;;;;;5029391;28;20472;-77
2022/09/10 08:06:28;;;;;;;2.70;0.60;;;16.00;99.90;;;;;;5011761;28;20190;-77
2022/09/10 08:08:54;;;;;;;1.10;0.60;;;16.00;99.90;;;;;;5012156;28;20189;-76
2022/09/10 08:11:20;;;;;;;0.90;0.40;;;16.10;99.90;;;;;;5033023;28;20687;-77
2022/09/10 08:13:48;;;;;;;0.80;0.50;;;16.10;99.90;;;;;;5030654;28;20755;-77
2022/09/10 08:16:22;;;;;;;1.43;0.57;;;16.00;99.90;;;;;;5033222;28;20811;-77
2022/09/10 08:18:50;;;;;;;1.17;0.50;;;16.10;99.90;;;;;;5030818;28;20470;-76
2022/09/10 08:21:17;;;;;;;0.80;0.50;;;16.10;99.90;;;;;;5014700;28;21312;-77
2022/09/10 08:23:50;;;;;;;3.90;0.83;;;16.30;99.90;;;;;;5030321;28;20834;-76
2022/09/10 08:26:16;;;;;;;1.40;0.50;;;16.30;99.90;;;;;;5030973;28;20429;-76
2022/09/10 08:28:43;;;;;;;0.90;0.50;;;16.20;99.90;;;;;;5030937;28;21292;-77
2022/09/10 08:31:11;;;;;;;10.33;0.60;;;16.30;99.90;;;;;;5040950;28;20453;-76
2022/09/10 08:33:40;;;;;;;1.90;0.77;;;16.60;99.90;;;;;;5048791;28;20437;-76
2022/09/10 08:36:09;;;;;;;1.27;0.50;;;16.90;99.90;;;;;;5045638;28;20426;-77
2022/09/10 08:38:39;;;;;;;1.90;0.67;;;17.20;99.90;;;;;;5028844;28;20938;-77
2022/09/10 08:41:31;;;;;;;1.00;0.40;;;17.40;99.90;;;;;;5029635;28;20485;-77
2022/09/10 08:44:08;;;;;;;1.00;0.63;;;17.40;99.90;;;;;;5028044;28;20474;-77
2022/09/10 08:47:18;;;;;;;1.00;0.50;;;17.70;99.90;;;;;;5028062;28;20427;-77
2022/09/10 08:49:52;;;;;;;2.23;0.50;;;18.10;99.90;;;;;;5028859;28;20425;-76
2022/09/10 08:52:43;;;;;;;2.70;0.60;;;18.40;99.90;;;;;;5029202;28;20440;-77
2022/09/10 08:55:20;;;;;;;3.60;0.60;;;18.40;99.90;;;;;;5029127;28;20434;-77
2022/09/10 08:58:17;;;;;;;4.20;0.70;;;18.80;99.90;;;;;;5028953;28;20434;-79
2022/09/10 09:00:45;;;;;;;0.80;0.47;;;18.90;99.90;;;;;;5028914;28;20803;-76
2022/09/10 09:03:19;;;;;;;1.83;0.50;;;19.00;99.90;;;;;;5029130;28;20570;-79
2022/09/10 09:06:03;;;;;;;2.13;0.50;;;19.00;99.90;;;;;;5028599;28;20834;-79
2022/09/10 09:08:33;;;;;;;1.97;0.80;;;19.20;99.90;;;;;;5028737;28;20439;-80
2022/09/10 09:11:06;;;;;;;1.40;0.70;;;19.20;99.90;;;;;;5028690;28;20423;-75
2022/09/10 09:13:59;;;;;;;1.73;0.60;;;18.90;99.90;;;;;;5029122;28;20529;-76
2022/09/10 09:16:46;;;;;;;2.10;0.90;;;18.90;99.90;;;;;;5007786;28;20523;-77
2022/09/10 09:19:33;;;;;;;4.60;0.97;;;18.80;99.90;;;;;;5029505;28;20419;-78
2022/09/10 09:22:16;;;;;;;5.30;0.60;;;18.90;99.90;;;;;;5029374;28;20609;-78
2022/09/10 09:24:59;;;;;;;1.40;0.80;;;19.00;99.90;;;;;;5029169;28;20927;-77
2022/09/10 09:27:32;;;;;;;4.40;0.80;;;19.00;99.90;;;;;;5028958;28;20457;-78
2022/09/10 09:30:14;;;;;;;2.23;0.73;;;18.90;99.90;;;;;;5028122;28;20927;-78
2022/09/10 09:32:42;;;;;;;5.23;0.80;;;19.00;99.90;;;;;;5029491;28;20521;-79
2022/09/10 09:35:31;;;;;;;9.13;0.90;;;19.20;99.90;;;;;;5029035;28;20907;-77
2022/09/10 09:38:19;;;;;;;3.73;0.90;;;19.90;99.90;;;;;;5029932;28;20503;-78
2022/09/10 09:40:49;;;;;;;2.50;0.80;;;19.80;99.90;;;;;;5022449;28;20451;-78
2022/09/10 09:43:41;;;;;;;3.03;0.80;;;20.30;99.90;;;;;;5028344;28;20474;-78
2022/09/10 09:46:17;;;;;;;10.33;0.93;;;20.40;99.90;;;;;;5029680;28;20422;-79
2022/09/10 09:48:44;;;;;;;3.20;0.80;;;20.20;99.90;;;;;;5027612;28;20446;-79
2022/09/10 09:51:12;;;;;;;2.33;1.23;;;19.90;99.90;;;;;;5029369;28;21074;-79
2022/09/10 09:53:39;;;;;;;5.03;1.10;;;19.50;99.90;;;;;;5027935;28;20855;-77
2022/09/10 09:56:14;;;;;;;4.13;1.10;;;19.20;99.90;;;;;;5030636;28;20423;-78
2022/09/10 09:58:46;;;;;;;6.13;1.43;;;19.00;99.90;;;;;;5031616;28;20440;-77
2022/09/10 10:01:15;;;;;;;4.27;0.80;;;18.70;99.90;;;;;;5031581;28;20443;-75
2022/09/10 10:04:01;;;;;;;4.63;1.47;;;18.50;99.90;;;;;;5031310;28;20663;-75
2022/09/10 10:06:27;;;;;;;4.83;1.00;;;18.50;99.90;;;;;;5029798;28;20437;-75
2022/09/10 10:09:05;;;;;;;4.00;0.83;;;18.50;99.90;;;;;;5031150;28;20434;-75
2022/09/10 10:11:45;;;;;;;3.63;0.80;;;18.40;99.90;;;;;;5031655;28;20208;-75
2022/09/10 10:14:34;;;;;;;2.80;0.97;;;18.30;99.90;;;;;;5031199;28;21237;-76
2022/09/10 10:17:00;;;;;;;7.53;1.00;;;18.40;99.90;;;;;;5031171;28;20581;-75
2022/09/10 10:19:27;;;;;;;5.50;1.40;;;18.30;99.90;;;;;;5030991;28;20441;-75
2022/09/10 10:21:53;;;;;;;2.00;0.80;;;18.40;99.90;;;;;;5031299;28;20445;-75
2022/09/10 10:24:31;;;;;;;4.30;0.90;;;18.60;99.90;;;;;;5031073;28;20468;-76
2022/09/10 10:26:58;;;;;;;3.23;0.80;;;18.60;99.90;;;;;;5031100;28;20187;-75
2022/09/10 10:29:24;;;;;;;4.50;0.80;;;18.70;99.90;;;;;;5012902;28;20521;-76
2022/09/10 10:31:50;;;;;;;2.10;0.73;;;18.70;99.90;;;;;;5031593;28;20531;-77
2022/09/10 10:34:43;;;;;;;3.73;1.10;;;18.80;99.90;;;;;;5031588;28;20987;-76
2022/09/10 10:37:36;;;;;;;1.50;0.53;;;18.90;99.90;;;;;;5031663;28;20453;-77
2022/09/10 10:40:12;;;;;;;2.90;0.70;;;19.40;99.90;;;;;;5031195;28;20454;-77
2022/09/10 10:42:53;;;;;;;5.30;0.80;;;19.50;99.90;;;;;;5031169;28;20817;-77
2022/09/10 10:45:43;;;;;;;1.80;1.00;;;19.30;99.90;;;;;;5031823;28;20473;-78
2022/09/10 10:48:15;;;;;;;3.77;1.00;;;19.20;99.90;;;;;;5030201;28;20423;-78
2022/09/10 10:50:56;;;;;;;3.23;1.30;;;19.00;99.90;;;;;;5032047;28;20832;-77
2022/09/10 10:53:36;;;;;;;2.50;0.80;;;18.90;99.90;;;;;;5032086;28;20461;-77
2022/09/10 10:56:10;;;;;;;2.23;0.83;;;18.90;99.90;;;;;;5032341;28;20415;-78
2022/09/10 10:58:48;;;;;;;4.03;0.93;;;19.00;99.90;;;;;;5032122;28;20424;-78
2022/09/10 11:01:21;;;;;;;1.77;0.73;;;19.10;99.90;;;;;;5030979;28;20528;-78
2022/09/10 11:03:56;;;;;;;2.17;0.80;;;19.00;99.90;;;;;;5031830;28;20564;-77
2022/09/10 11:06:26;;;;;;;4.07;0.80;;;19.20;99.90;;;;;;5030644;28;20419;-77
2022/09/10 11:09:23;;;;;;;1.87;0.97;;;18.90;99.90;;;;;;5030529;28;20407;-78
2022/09/10 11:11:57;;;;;;;5.17;0.80;;;18.70;99.90;;;;;;5028684;28;20446;-78
2022/09/10 11:14:47;;;;;;;5.60;0.77;;;18.80;99.90;;;;;;5030700;28;20512;-78
2022/09/10 11:17:50;;;;;;;3.10;0.80;;;18.70;99.90;;;;;;5026099;28;20431;-77
2022/09/10 11:20:29;;;;;;;1.73;0.70;;;18.80;99.90;;;;;;5031413;28;20426;-78
2022/09/10 11:23:04;;;;;;;2.80;0.60;;;19.10;99.90;;;;;;5031669;28;20473;-78
2022/09/10 11:25:39;;;;;;;1.77;0.73;;;19.40;99.90;;;;;;5030343;28;20425;-78
2022/09/10 11:28:21;;;;;;;5.97;1.20;;;19.30;99.90;;;;;;5032513;28;20403;-78
2022/09/10 11:30:53;;;;;;;4.10;0.93;;;19.20;99.90;;;;;;5031844;28;20983;-78
2022/09/10 11:33:26;;;;;;;5.17;0.70;;;19.00;99.90;;;;;;5031315;28;20792;-77
2022/09/10 11:36:15;;;;;;;1.73;0.70;;;18.70;99.90;;;;;;5031036;28;20796;-78
2022/09/10 11:39:22;;;;;;;2.60;0.53;;;18.70;99.90;;;;;;5025734;28;20983;-77
2022/09/10 11:41:53;;;;;;;5.03;0.77;;;19.70;99.90;;;;;;5031868;28;20462;-78
2022/09/10 11:44:37;;;;;;;0.70;0.47;;;20.60;99.90;;;;;;5031179;28;20462;-78
2022/09/10 11:47:05;;;;;;;2.07;0.70;;;21.40;99.90;;;;;;5031200;28;20946;-78
2022/09/10 11:49:51;;;;;;;1.23;0.60;;;22.10;99.90;;;;;;5029789;28;20425;-78
2022/09/10 11:52:19;;;;;;;2.80;1.10;;;22.00;99.90;;;;;;5030527;28;20498;-79
2022/09/10 11:54:46;;;;;;;1.30;0.60;;;22.50;99.90;;;;;;5029292;28;20429;-78
2022/09/10 11:57:30;;;;;;;1.73;0.70;;;22.60;99.90;;;;;;5029360;28;20420;-78
2022/09/10 12:00:14;;;;;;;2.90;0.90;;;22.90;99.90;;;;;;5029216;28;20409;-77
2022/09/10 12:03:06;;;;;;;3.37;0.50;;;22.90;99.90;;;;;;5029515;28;20472;-79
2022/09/10 12:06:01;;;;;;;1.00;0.60;;;22.80;99.90;;;;;;5027941;28;20422;-78
2022/09/10 12:08:39;;;;;;;3.00;0.80;;;22.40;99.90;;;;;;5028789;28;20994;-78
2022/09/10 12:11:37;;;;;;;2.10;0.70;;;22.10;99.90;;;;;;5028122;28;20426;-78
2022/09/10 12:14:21;;;;;;;1.30;0.70;;;22.60;99.90;;;;;;5031267;28;20785;-78
2022/09/10 12:17:02;;;;;;;1.43;0.70;;;22.40;99.90;;;;;;5030327;28;20419;-78
2022/09/10 12:19:33;;;;;;;2.40;0.77;;;22.50;99.90;;;;;;5030570;28;20498;-78
2022/09/10 12:22:20;;;;;;;4.90;0.87;;;22.30;99.90;;;;;;5028895;28;20934;-78
2022/09/10 12:24:58;;;;;;;2.70;0.87;;;22.50;99.90;;;;;;5030289;28;20476;-78
2022/09/10 12:27:43;;;;;;;2.20;0.87;;;23.20;99.90;;;;;;5030327;28;20417;-78
2022/09/10 12:30:24;;;;;;;1.63;0.80;;;23.50;97.70;;;;;;5028730;28;20406;-78
2022/09/10 12:32:59;;;;;;;4.70;0.70;;;23.20;96.30;;;;;;5030029;28;20520;-78
2022/09/10 12:35:34;;;;;;;5.83;0.70;;;22.70;98.20;;;;;;5029245;28;20838;-79
2022/09/10 12:38:38;;;;;;;2.83;0.90;;;22.50;98.40;;;;;;5032098;28;20453;-79
2022/09/10 12:41:31;;;;;;;2.63;0.80;;;23.10;96.40;;;;;;5032669;28;20453;-79
2022/09/10 12:43:58;;;;;;;3.17;0.80;;;23.00;97.00;;;;;;5011968;28;20489;-78
2022/09/10 12:46:25;;;;;;;7.80;0.80;;;22.90;96.30;;;;;;5031644;28;20422;-79
2022/09/10 12:49:09;;;;;;;5.00;1.00;;;22.80;97.00;;;;;;5030431;28;20430;-78
2022/09/10 12:51:50;;;;;;;2.03;0.70;;;23.10;96.70;;;;;;5031444;28;20434;-78
2022/09/10 12:54:51;;;;;;;1.23;0.60;;;22.90;97.50;;;;;;5029353;28;20515;-78
2022/09/10 12:57:26;;;;;;;1.77;0.50;;;22.60;98.00;;;;;;5031287;28;20415;-79
2022/09/10 13:00:29;;;;;;;1.27;0.70;;;21.50;96.40;;;;;;5031003;28;20454;-78
2022/09/10 13:03:13;;;;;;;3.90;1.30;;;21.30;99.30;;;;;;5030719;28;20999;-78
2022/09/10 13:05:46;;;;;;;2.90;1.00;;;21.00;99.90;;;;;;5030927;28;20395;-79
2022/09/10 13:08:35;;;;;;;2.60;0.90;;;20.80;99.90;;;;;;5031192;28;20498;-78
2022/09/10 13:11:13;;;;;;;1.43;0.60;;;20.90;99.90;;;;;;5029203;28;20426;-78
2022/09/10 13:14:01;;;;;;;3.83;0.60;;;20.70;99.90;;;;;;5029898;28;20468;-76